Time;durP1;ratioP1;P1;durP2;ratioP2;P2;SDS_P1;SDS_P2;PMS_P1;PMS_P2;Temp;Humidity;BMP_temperature;BMP_pressure;BME280_temperature;BME280_humidity;BME280_pressure;Samples;Min_cycle;Max_cycle;Signal;HPM_P1;HPM_P2
2023/01/22 00:06:55;;;;;;;51.30;30.80;;;;;;;-0.28;94.50;99211.16;434661;1259;107257;-40
2023/01/22 00:17:02;;;;;;;56.60;31.40;;;;;;;-0.23;94.64;99214.70;434816;1257;98819;-38
2023/01/22 00:27:09;;;;;;;73.90;37.00;;;;;;;-0.25;94.37;99223.49;434769;1254;107690;-39
2023/01/22 00:37:15;;;;;;;84.20;35.80;;;;;;;-0.30;94.56;99243.06;434683;1266;97931;-39
2023/01/22 00:47:23;;;;;;;46.00;24.90;;;;;;;-0.39;94.19;99247.70;434652;1257;111835;-40
2023/01/22 00:57:30;;;;;;;40.80;20.70;;;;;;;-0.37;94.15;99258.29;434733;1256;108437;-40
2023/01/22 01:07:36;;;;;;;32.40;19.10;;;;;;;-0.34;94.12;99265.55;434747;1257;99348;-39
2023/01/22 01:17:45;;;;;;;37.40;17.70;;;;;;;-0.39;94.16;99272.66;434728;1259;108075;-39
2023/01/22 01:27:52;;;;;;;37.80;20.10;;;;;;;-0.49;94.23;99284.48;434755;1259;99314;-39
2023/01/22 01:37:59;;;;;;;19.50;10.40;;;;;;;-0.54;93.88;99289.61;434656;1257;114308;-39
2023/01/22 01:58:20;;;;;;;11.10;7.10;;;;;;;-0.41;93.90;99298.16;434586;1259;98076;-39
2023/01/22 02:08:27;;;;;;;17.10;8.20;;;;;;;-0.45;93.81;99295.42;434611;1256;107447;-40
2023/01/22 02:18:34;;;;;;;19.30;11.20;;;;;;;-0.45;93.69;99300.45;434596;1259;97999;-39
2023/01/22 02:28:41;;;;;;;24.10;11.60;;;;;;;-0.53;93.57;99293.90;434626;1259;110802;-43
2023/01/22 02:38:48;;;;;;;10.80;7.10;;;;;;;-0.60;93.42;99291.20;434495;1260;107290;-38
2023/01/22 02:48:56;;;;;;;10.70;7.20;;;;;;;-0.54;93.41;99301.92;434461;1253;98949;-39
2023/01/22 02:59:04;;;;;;;9.80;7.00;;;;;;;-0.46;93.42;99323.37;435676;1254;319892;-39
2023/01/22 03:09:11;;;;;;;18.80;9.70;;;;;;;-0.49;93.49;99327.05;435139;1257;108824;-39
2023/01/22 03:29:43;;;;;;;11.60;6.70;;;;;;;-0.55;93.13;99332.30;435167;1258;107497;-39
2023/01/22 03:39:50;;;;;;;10.90;7.30;;;;;;;-0.54;93.04;99323.35;435205;1254;99266;-39
2023/01/22 03:49:57;;;;;;;16.00;11.10;;;;;;;-0.60;93.08;99322.23;435284;1256;110540;-39
2023/01/22 04:00:06;;;;;;;18.00;9.50;;;;;;;-0.67;92.85;99324.75;435150;1257;107997;-40
2023/01/22 04:10:13;;;;;;;12.40;7.30;;;;;;;-0.67;92.82;99332.73;435285;1253;99179;-38
2023/01/22 04:20:20;;;;;;;17.30;9.10;;;;;;;-0.64;92.77;99334.89;435214;1256;111981;-39
2023/01/22 04:30:28;;;;;;;17.80;11.60;;;;;;;-0.66;92.92;99341.96;435080;1254;108036;-39
2023/01/22 04:40:35;;;;;;;15.80;9.40;;;;;;;-0.69;92.83;99347.64;435101;1254;99202;-40
2023/01/22 04:50:42;;;;;;;16.40;10.10;;;;;;;-0.66;92.74;99356.87;435137;1257;108538;-38
2023/01/22 05:00:52;;;;;;;16.50;11.00;;;;;;;-0.61;92.82;99356.77;435089;1253;98014;-39
2023/01/22 05:11:00;;;;;;;27.40;14.80;;;;;;;-0.60;93.01;99366.92;435242;1266;113977;-41
2023/01/22 05:21:07;;;;;;;29.90;14.30;;;;;;;-0.68;92.83;99371.59;435132;1254;107321;-39
2023/01/22 05:31:14;;;;;;;17.60;12.80;;;;;;;-0.73;92.71;99374.11;435097;1257;99237;-40
2023/01/22 05:41:21;;;;;;;16.40;10.60;;;;;;;-0.70;92.65;99371.80;435148;1253;112607;-39
2023/01/22 05:51:28;;;;;;;17.50;10.60;;;;;;;-0.66;92.80;99377.31;434976;1257;108398;-42
2023/01/22 06:01:38;;;;;;;25.70;13.90;;;;;;;-0.69;93.01;99387.40;435155;1254;99243;-40
2023/01/22 06:11:45;;;;;;;25.50;12.50;;;;;;;-0.77;93.08;99398.52;435156;1254;107493;-40
2023/01/22 06:21:52;;;;;;;25.70;14.30;;;;;;;-0.79;93.02;99403.60;435149;1257;99258;-40
2023/01/22 06:31:59;;;;;;;20.70;11.00;;;;;;;-0.75;92.94;99413.98;435172;1257;112335;-40
2023/01/22 06:42:04;;;;;;;17.20;11.20;;;;;;;-0.72;93.12;99416.78;435109;1253;107767;-40
2023/01/22 06:52:12;;;;;;;33.70;17.60;;;;;;;-0.72;93.22;99428.92;435133;1259;99233;-39
2023/01/22 07:02:19;;;;;;;25.50;13.80;;;;;;;-0.70;93.12;99446.39;435051;1254;111038;-39
2023/01/22 07:12:27;;;;;;;20.20;13.20;;;;;;;-0.62;93.11;99466.46;435129;1253;107959;-40
2023/01/22 07:22:34;;;;;;;27.40;15.20;;;;;;;-0.51;93.19;99480.02;435193;1253;99259;-40
2023/01/22 07:42:48;;;;;;;25.40;15.00;;;;;;;-0.49;93.33;99493.38;435152;1253;98030;-38
2023/01/22 07:52:55;;;;;;;25.60;14.50;;;;;;;-0.44;93.17;99504.73;435145;1253;112095;-40
2023/01/22 08:03:03;;;;;;;19.90;12.50;;;;;;;-0.37;93.27;99501.25;435054;1257;107921;-40
2023/01/22 08:13:11;;;;;;;25.50;13.50;;;;;;;-0.31;93.46;99502.83;435289;1257;99237;-40
2023/01/22 08:23:18;;;;;;;15.20;9.40;;;;;;;-0.28;93.45;99491.82;435225;1254;107116;-39
2023/01/22 08:33:28;;;;;;;17.80;10.20;;;;;;;-0.15;93.46;99506.02;435115;1258;99260;-41
2023/01/22 08:43:35;;;;;;;25.80;15.20;;;;;;;-0.05;93.62;99521.77;435172;1256;111232;-40
2023/01/22 08:53:42;;;;;;;17.40;9.40;;;;;;;-0.00;93.49;99518.89;435141;1254;107855;-40
2023/01/22 09:03:49;;;;;;;11.50;7.60;;;;;;;0.14;93.37;99515.65;435180;1253;98450;-40
2023/01/22 09:13:56;;;;;;;15.30;9.50;;;;;;;0.32;93.49;99529.61;435045;1254;108481;-39
2023/01/22 09:24:04;;;;;;;24.90;12.60;;;;;;;0.41;93.63;99541.46;435330;1253;99342;-39
2023/01/22 09:34:11;;;;;;;13.50;8.50;;;;;;;0.42;93.27;99536.98;435070;1258;112785;-40
2023/01/22 09:44:19;;;;;;;17.00;10.20;;;;;;;0.45;93.31;99527.48;435160;1253;106102;-39
2023/01/22 09:54:28;;;;;;;25.30;12.80;;;;;;;0.54;93.55;99525.23;435139;1253;98120;-39
2023/01/22 10:04:37;;;;;;;23.00;13.70;;;;;;;0.42;93.66;99525.16;435257;1256;109035;-39
2023/01/22 10:14:45;;;;;;;19.60;12.30;;;;;;;0.35;93.60;99525.04;435018;1252;98820;-39
2023/01/22 10:24:53;;;;;;;25.60;12.60;;;;;;;0.37;93.72;99518.51;435181;1253;110749;-38
2023/01/22 10:34:59;;;;;;;14.20;9.30;;;;;;;0.47;93.78;99514.80;435161;1253;109364;-39
2023/01/22 10:55:20;;;;;;;17.70;10.50;;;;;;;0.78;93.90;99511.94;435189;1257;112356;-41
2023/01/22 11:05:31;;;;;;;15.80;10.10;;;;;;;0.94;93.78;99513.33;434673;1253;107334;-40
2023/01/22 11:15:44;;;;;;;20.80;12.30;;;;;;;0.95;93.82;99510.14;434451;1253;99250;-41
2023/01/22 11:25:49;;;;;;;35.40;17.70;;;;;;;0.96;93.86;99511.98;434449;1252;108499;-39
2023/01/22 11:35:58;;;;;;;16.20;11.60;;;;;;;0.86;93.75;99506.92;434501;1255;98860;-40
2023/01/22 11:46:14;;;;;;;15.30;11.20;;;;;;;0.82;93.82;99501.27;434468;1258;111921;-41
2023/01/22 11:56:22;;;;;;;19.00;11.10;;;;;;;0.80;93.96;99498.01;434459;1252;107134;-40
2023/01/22 12:06:54;;;;;;;26.10;16.30;;;;;;;0.79;94.21;99498.15;434535;1257;98002;-41
2023/01/22 12:17:00;;;;;;;27.00;15.50;;;;;;;0.88;94.38;99495.00;434471;1253;108229;-40
2023/01/22 12:27:14;;;;;;;26.30;14.50;;;;;;;0.89;94.42;99493.12;434448;1253;99339;-40
2023/01/22 12:37:26;;;;;;;26.80;14.40;;;;;;;0.89;94.62;99494.16;434474;1253;112758;-39
2023/01/22 12:47:31;;;;;;;24.90;15.60;;;;;;;0.94;94.64;99503.09;434403;1253;109506;-39
2023/01/22 13:07:44;;;;;;;30.90;18.20;;;;;;;0.86;94.66;99521.38;434537;1259;99225;-39
2023/01/22 13:17:49;;;;;;;29.50;17.50;;;;;;;0.88;94.73;99533.47;434566;1253;107694;-41
2023/01/22 13:38:28;;;;;;;25.50;14.20;;;;;;;0.93;94.85;99552.77;434629;1253;108373;-40
2023/01/22 13:48:35;;;;;;;28.70;15.40;;;;;;;0.90;94.97;99556.59;434656;1253;99225;-40
2023/01/22 13:58:43;;;;;;;24.30;15.00;;;;;;;0.88;95.25;99560.45;434674;1253;112987;-40
2023/01/22 14:08:57;;;;;;;24.10;14.50;;;;;;;0.85;95.18;99568.02;434651;1252;107621;-45
2023/01/22 14:19:03;;;;;;;27.40;17.60;;;;;;;0.85;95.24;99579.77;434651;1253;99407;-41
2023/01/22 14:29:10;;;;;;;27.00;14.70;;;;;;;0.83;95.44;99589.69;434586;1253;107851;-39
2023/01/22 14:49:24;;;;;;;30.20;16.10;;;;;;;0.81;95.42;99610.91;434830;1257;110784;-40
2023/01/22 14:59:31;;;;;;;26.90;17.00;;;;;;;0.79;95.53;99617.82;434608;1253;260181;-39
2023/01/22 15:09:39;;;;;;;29.30;18.10;;;;;;;0.78;95.56;99629.69;434816;1253;99247;-40
2023/01/22 15:19:46;;;;;;;25.20;16.60;;;;;;;0.77;95.50;99644.96;434899;1253;108300;-40
2023/01/22 15:29:54;;;;;;;23.20;15.80;;;;;;;0.74;95.58;99647.50;434838;1253;99340;-40
2023/01/22 15:40:01;;;;;;;29.20;16.50;;;;;;;0.68;95.62;99645.93;434848;1257;110403;-39
2023/01/22 15:50:10;;;;;;;34.60;20.10;;;;;;;0.68;95.68;99658.84;434992;1253;108619;-41
2023/01/22 16:00:19;;;;;;;30.40;19.80;;;;;;;0.70;95.79;99680.27;434924;1253;99110;-40
2023/01/22 16:10:27;;;;;;;28.30;17.80;;;;;;;0.71;95.95;99692.55;434866;1257;107619;-41
2023/01/22 16:20:34;;;;;;;25.90;15.60;;;;;;;0.70;95.90;99704.79;434861;1259;98011;-39
2023/01/22 16:30:41;;;;;;;30.10;18.70;;;;;;;0.69;96.09;99708.87;434936;1257;111649;-40
2023/01/22 16:40:49;;;;;;;27.60;16.00;;;;;;;0.68;96.10;99719.52;435006;1259;107732;-41
2023/01/22 16:50:57;;;;;;;25.90;14.20;;;;;;;0.66;96.17;99720.90;434921;1253;99237;-41
2023/01/22 17:01:03;;;;;;;27.00;15.50;;;;;;;0.66;96.32;99733.30;434873;1253;107877;-40
2023/01/22 17:11:14;;;;;;;37.70;18.60;;;;;;;0.64;96.37;99744.77;434945;1257;99258;-44
2023/01/22 17:21:21;;;;;;;28.90;17.30;;;;;;;0.61;96.55;99751.93;434916;1257;110305;-40
2023/01/22 17:31:30;;;;;;;34.40;18.70;;;;;;;0.60;96.75;99761.19;434914;1259;106557;-41
2023/01/22 17:41:37;;;;;;;29.80;18.20;;;;;;;0.60;96.76;99774.57;434853;1259;99272;-39
2023/01/22 17:51:45;;;;;;;30.90;17.60;;;;;;;0.60;96.89;99787.22;434893;1257;109537;-42
2023/01/22 18:01:53;;;;;;;34.20;19.30;;;;;;;0.61;96.98;99793.16;434829;1253;97996;-40
2023/01/22 18:12:01;;;;;;;32.40;19.30;;;;;;;0.63;96.90;99799.68;434926;1257;111805;-40
2023/01/22 18:22:09;;;;;;;38.10;20.20;;;;;;;0.65;96.93;99813.68;434826;1253;108730;-39
2023/01/22 18:32:16;;;;;;;38.00;19.00;;;;;;;0.64;97.13;99815.38;434908;1253;99246;-41
2023/01/22 18:42:23;;;;;;;38.80;22.20;;;;;;;0.62;97.15;99825.06;434756;1253;109391;-41
2023/01/22 18:52:32;;;;;;;35.00;19.00;;;;;;;0.64;97.08;99837.61;434866;1257;98606;-41
2023/01/22 19:02:39;;;;;;;39.00;21.40;;;;;;;0.65;97.20;99849.82;434830;1259;112031;-42
2023/01/22 19:12:46;;;;;;;40.80;21.40;;;;;;;0.63;97.26;99854.86;434859;1257;107431;-39
2023/01/22 19:43:07;;;;;;;31.90;17.00;;;;;;;0.67;97.45;99879.25;434659;1259;99369;-40
2023/01/22 19:53:15;;;;;;;33.40;18.70;;;;;;;0.70;97.34;99888.07;434856;1254;110999;-40
2023/01/22 20:03:22;;;;;;;31.00;17.90;;;;;;;0.67;97.38;99893.01;434686;1257;108995;-40
2023/01/22 20:13:29;;;;;;;38.70;19.00;;;;;;;0.64;97.40;99901.25;434644;1259;99253;-40
2023/01/22 20:23:36;;;;;;;32.40;18.50;;;;;;;0.65;97.44;99904.98;434681;1257;107506;-39
2023/01/22 20:33:44;;;;;;;35.60;17.50;;;;;;;0.63;97.54;99910.67;434612;1253;99234;-39
2023/01/22 20:54:14;;;;;;;34.70;18.50;;;;;;;0.61;97.53;99918.88;434556;1254;108521;-41
2023/01/22 21:04:22;;;;;;;34.80;18.70;;;;;;;0.58;97.65;99918.73;434718;1256;98816;-39
2023/01/22 21:14:29;;;;;;;39.50;19.40;;;;;;;0.54;97.63;99925.52;434507;1257;108558;-41
2023/01/22 21:24:37;;;;;;;34.40;19.50;;;;;;;0.57;97.86;99937.39;434653;1253;99142;-40
2023/01/22 21:34:44;;;;;;;29.90;17.00;;;;;;;0.58;97.89;99942.18;434566;1257;112011;-40
2023/01/22 21:55:14;;;;;;;36.00;18.10;;;;;;;0.57;97.99;99953.74;434518;1266;99227;-41
2023/01/22 22:05:22;;;;;;;36.90;18.30;;;;;;;0.59;98.03;99956.45;434595;1257;107685;-40
2023/01/22 22:15:29;;;;;;;36.50;17.70;;;;;;;0.61;97.96;99963.58;434405;1254;99267;-40
2023/01/22 22:25:36;;;;;;;40.30;20.30;;;;;;;0.58;97.79;99980.02;434586;1254;111405;-40
2023/01/22 22:35:44;;;;;;;32.30;18.70;;;;;;;0.59;97.91;99989.48;434384;1255;108132;-39
2023/01/22 22:45:51;;;;;;;38.00;20.80;;;;;;;0.57;97.97;99999.33;434567;1253;99217;-39
2023/01/22 22:55:58;;;;;;;39.80;20.10;;;;;;;0.59;97.92;100002.65;434498;1253;107546;-41
2023/01/22 23:16:12;;;;;;;45.30;24.10;;;;;;;0.78;98.06;100039.77;434437;1258;111373;-40
2023/01/22 23:26:25;;;;;;;61.20;25.80;;;;;;;0.78;97.77;100034.72;434515;1254;107305;-40
2023/01/22 23:36:33;;;;;;;92.20;33.90;;;;;;;0.72;97.93;100044.92;434506;1258;100927;-40
2023/01/22 23:46:41;;;;;;;66.10;25.90;;;;;;;0.63;98.05;100031.67;434428;1258;111164;-40
2023/01/22 23:56:48;;;;;;;56.90;25.60;;;;;;;0.56;97.76;100041.97;434483;1257;107890;-39
